createdAt,value
2018-03-25T00:02:14.286Z,10.40
2018-03-25T00:04:42.573Z,11.17
2018-03-25T00:07:10.797Z,11.27
2018-03-25T00:09:39.290Z,9.70
2018-03-25T00:12:08.658Z,10.20
2018-03-25T00:14:37.104Z,11.07
2018-03-25T00:17:05.629Z,10.60
2018-03-25T00:19:33.850Z,11.93
2018-03-25T00:22:02.129Z,10.20
2018-03-25T00:24:30.380Z,10.67
2018-03-25T00:26:58.619Z,10.20
2018-03-25T00:29:27.112Z,10.47
2018-03-25T00:31:56.241Z,9.27
2018-03-25T00:34:24.450Z,10.40
2018-03-25T00:36:52.705Z,9.30
2018-03-25T00:39:20.983Z,11.30
2018-03-25T00:41:49.218Z,9.87
2018-03-25T00:44:18.260Z,11.20
2018-03-25T00:46:48.050Z,11.10
2018-03-25T00:49:16.307Z,10.10
2018-03-25T00:51:45.377Z,9.77
2018-03-25T00:54:13.605Z,10.40
2018-03-25T00:56:42.728Z,9.17
2018-03-25T00:59:10.956Z,11.43
2018-03-25T01:01:40.199Z,9.73
2018-03-25T01:04:08.485Z,10.43
2018-03-25T01:06:36.789Z,10.30
2018-03-25T01:09:06.530Z,9.80
2018-03-25T01:11:34.846Z,10.60
2018-03-25T01:14:04.036Z,10.77
2018-03-25T01:16:32.300Z,9.90
2018-03-25T01:19:00.656Z,9.97
2018-03-25T01:21:28.944Z,10.70
2018-03-25T01:23:58.246Z,9.80
2018-03-25T01:26:26.508Z,10.33
2018-03-25T01:28:54.793Z,10.10
2018-03-25T01:31:23.033Z,9.97
2018-03-25T01:33:52.043Z,10.00
2018-03-25T01:36:21.066Z,10.30
2018-03-25T01:38:49.502Z,10.63
2018-03-25T01:41:17.782Z,10.17
2018-03-25T01:43:46.007Z,10.80
2018-03-25T01:46:14.269Z,9.40
2018-03-25T01:48:42.634Z,9.23
2018-03-25T01:51:11.097Z,9.83
2018-03-25T01:53:39.348Z,9.90
2018-03-25T01:56:07.614Z,9.63
2018-03-25T01:58:35.933Z,9.20
2018-03-25T02:01:04.198Z,9.57
2018-03-25T02:03:32.510Z,10.07
2018-03-25T02:06:01.022Z,10.00
2018-03-25T02:08:30.095Z,9.57
2018-03-25T02:10:58.351Z,10.60
2018-03-25T02:13:26.609Z,10.03
2018-03-25T02:15:54.863Z,10.50
2018-03-25T02:18:24.634Z,10.23
2018-03-25T02:20:53.067Z,10.50
2018-03-25T02:23:21.319Z,10.63
2018-03-25T02:25:49.567Z,9.33
2018-03-25T02:28:17.849Z,10.70
2018-03-25T02:30:46.184Z,10.10
2018-03-25T02:33:14.421Z,10.10
2018-03-25T02:35:42.690Z,10.73
2018-03-25T02:38:10.926Z,10.20
2018-03-25T02:40:39.189Z,10.07
2018-03-25T02:43:07.471Z,10.53
2018-03-25T02:45:36.578Z,10.73
2018-03-25T02:48:04.820Z,10.83
2018-03-25T02:50:33.085Z,10.03
2018-03-25T02:53:01.421Z,11.03
2018-03-25T02:55:29.678Z,10.13
2018-03-25T02:57:58.790Z,9.60
2018-03-25T03:00:27.798Z,11.10
2018-03-25T03:02:56.034Z,10.47
2018-03-25T03:05:24.288Z,10.90
2018-03-25T03:07:52.559Z,10.27
2018-03-25T03:10:21.056Z,11.37
2018-03-25T03:12:49.320Z,10.73
2018-03-25T03:15:18.441Z,10.73
2018-03-25T03:17:46.741Z,10.47
2018-03-25T03:20:14.993Z,10.83
2018-03-25T03:22:44.233Z,10.00
2018-03-25T03:25:12.506Z,11.13
2018-03-25T03:27:40.873Z,11.07
2018-03-25T03:30:09.134Z,11.57
2018-03-25T03:32:37.585Z,10.93
2018-03-25T03:35:05.825Z,10.90
2018-03-25T03:37:34.061Z,10.20
2018-03-25T03:40:03.054Z,11.40
2018-03-25T03:42:31.325Z,11.30
2018-03-25T03:44:59.561Z,11.23
2018-03-25T03:47:27.860Z,9.87
2018-03-25T03:49:56.085Z,9.50
2018-03-25T03:52:24.371Z,11.47
2018-03-25T03:54:52.704Z,9.87
2018-03-25T03:57:21.843Z,10.63
2018-03-25T03:59:50.081Z,11.50
2018-03-25T04:02:18.544Z,10.40
2018-03-25T04:04:47.006Z,10.77
2018-03-25T04:07:15.298Z,11.07
2018-03-25T04:09:43.514Z,10.40
2018-03-25T04:12:11.852Z,11.30
2018-03-25T04:14:40.129Z,11.67
2018-03-25T04:17:08.391Z,10.10
2018-03-25T04:19:36.887Z,10.70
2018-03-25T04:22:05.913Z,11.53
2018-03-25T04:24:34.201Z,9.93
2018-03-25T04:27:02.446Z,10.60
2018-03-25T04:29:31.491Z,10.57
2018-03-25T04:31:59.735Z,10.97
2018-03-25T04:34:28.958Z,11.07
2018-03-25T04:36:57.209Z,10.70
2018-03-25T04:39:25.493Z,10.60
2018-03-25T04:41:53.786Z,10.60
2018-03-25T04:44:22.032Z,10.03
2018-03-25T04:46:51.407Z,10.50
2018-03-25T04:49:19.636Z,10.57
2018-03-25T04:51:48.805Z,10.60
2018-03-25T04:54:18.283Z,10.30
2018-03-25T04:56:46.567Z,11.10
2018-03-25T04:59:14.784Z,10.97
2018-03-25T05:01:43.027Z,11.10
2018-03-25T05:04:12.622Z,10.33
2018-03-25T05:06:40.830Z,10.83
2018-03-25T05:09:09.116Z,10.60
2018-03-25T05:11:38.213Z,10.33
2018-03-25T05:14:06.726Z,10.83
2018-03-25T05:16:35.024Z,10.83
2018-03-25T05:19:03.253Z,10.60
2018-03-25T05:21:31.534Z,10.50
2018-03-25T05:24:00.018Z,10.53
2018-03-25T05:26:28.691Z,10.77
2018-03-25T05:28:57.181Z,11.43
2018-03-25T05:31:25.653Z,10.60
2018-03-25T05:33:53.897Z,9.93
2018-03-25T05:36:22.926Z,10.70
2018-03-25T05:38:51.188Z,10.80
2018-03-25T05:41:19.763Z,12.17
2018-03-25T05:43:48.021Z,11.30
2018-03-25T05:46:17.153Z,11.30
2018-03-25T05:48:45.488Z,11.70
2018-03-25T05:51:14.490Z,10.43
2018-03-25T05:53:43.517Z,10.30
2018-03-25T05:56:11.755Z,9.93
2018-03-25T05:58:40.002Z,9.80
2018-03-25T06:01:08.252Z,10.47
2018-03-25T06:03:36.507Z,10.97
2018-03-25T06:06:04.733Z,10.80
2018-03-25T06:08:32.985Z,11.20
2018-03-25T06:11:01.263Z,11.10
2018-03-25T06:13:29.485Z,11.10
2018-03-25T06:15:57.778Z,10.37
2018-03-25T06:18:26.024Z,11.67
2018-03-25T06:20:54.220Z,11.17
2018-03-25T06:23:22.707Z,11.63
2018-03-25T06:25:51.836Z,10.17
2018-03-25T06:28:20.109Z,10.20
2018-03-25T06:30:48.356Z,11.40
2018-03-25T06:33:18.358Z,11.90
2018-03-25T06:35:46.614Z,11.70
2018-03-25T06:38:14.859Z,11.40
2018-03-25T06:40:43.122Z,11.50
2018-03-25T06:43:11.366Z,11.63
2018-03-25T06:45:40.622Z,11.37
2018-03-25T06:48:08.989Z,11.90
2018-03-25T06:50:37.255Z,10.30
2018-03-25T06:53:05.487Z,11.20
2018-03-25T06:55:34.545Z,12.20
2018-03-25T06:58:02.873Z,10.57
2018-03-25T07:00:31.281Z,13.43
2018-03-25T07:03:00.185Z,12.00
2018-03-25T07:05:28.437Z,12.50
2018-03-25T07:07:56.682Z,11.83
2018-03-25T07:10:24.993Z,11.53
2018-03-25T07:12:53.406Z,12.30
2018-03-25T07:15:21.695Z,11.37
2018-03-25T07:17:50.195Z,12.80
2018-03-25T07:20:18.435Z,12.80
2018-03-25T07:22:46.776Z,10.93
2018-03-25T07:25:16.617Z,12.10
2018-03-25T07:27:44.880Z,12.73
2018-03-25T07:30:13.284Z,13.10
2018-03-25T07:32:41.567Z,12.87
2018-03-25T07:35:09.870Z,12.27
2018-03-25T07:37:38.258Z,12.20
2018-03-25T07:40:06.526Z,11.63
2018-03-25T07:42:34.812Z,15.20
2018-03-25T07:45:03.242Z,12.33
2018-03-25T07:47:31.762Z,12.87
2018-03-25T07:50:00.119Z,13.27
2018-03-25T07:52:28.334Z,12.60
2018-03-25T07:54:56.810Z,11.77
2018-03-25T07:57:25.150Z,13.03
2018-03-25T07:59:53.420Z,12.43
2018-03-25T08:02:21.678Z,13.70
2018-03-25T08:04:49.965Z,12.80
2018-03-25T08:07:19.031Z,12.90
2018-03-25T08:09:47.507Z,13.10
2018-03-25T08:12:15.744Z,13.83
2018-03-25T08:14:45.506Z,13.43
2018-03-25T08:17:13.782Z,11.97
2018-03-25T08:19:42.069Z,12.43
2018-03-25T08:22:10.857Z,13.83
2018-03-25T08:24:39.095Z,12.17
2018-03-25T08:27:07.431Z,13.20
2018-03-25T08:29:35.815Z,11.30
2018-03-25T08:32:04.165Z,12.50
2018-03-25T08:34:32.429Z,12.50
2018-03-25T08:37:00.716Z,13.00
2018-03-25T08:39:28.955Z,12.00
2018-03-25T08:41:57.269Z,12.93
2018-03-25T08:44:25.513Z,12.60
2018-03-25T08:46:53.818Z,12.50
2018-03-25T08:49:22.102Z,11.33
2018-03-25T08:51:50.393Z,11.47
2018-03-25T08:54:18.715Z,11.37
2018-03-25T08:56:48.120Z,10.53
2018-03-25T08:59:16.353Z,11.60
2018-03-25T09:01:44.597Z,12.07
2018-03-25T09:04:12.888Z,11.70
2018-03-25T09:06:41.130Z,11.03
2018-03-25T09:09:09.402Z,11.73
2018-03-25T09:11:38.307Z,11.57
2018-03-25T09:14:06.561Z,9.60
2018-03-25T09:16:35.055Z,10.80
2018-03-25T09:19:03.470Z,10.27
2018-03-25T09:21:31.755Z,8.80
2018-03-25T09:24:00.010Z,9.40
2018-03-25T09:26:28.278Z,11.27
2018-03-25T09:28:56.560Z,10.83
2018-03-25T09:31:24.809Z,9.83
2018-03-25T09:33:53.852Z,11.10
2018-03-25T09:36:22.170Z,12.10
2018-03-25T09:38:50.431Z,10.70
2018-03-25T09:41:18.725Z,10.10
2018-03-25T09:43:46.974Z,10.73
2018-03-25T09:46:15.219Z,9.77
2018-03-25T09:48:43.478Z,10.27
2018-03-25T09:51:11.742Z,9.90
2018-03-25T09:53:41.107Z,9.90
2018-03-25T09:56:09.345Z,9.87
2018-03-25T09:58:37.658Z,9.63
2018-03-25T10:01:11.543Z,9.27
2018-03-25T10:03:40.629Z,10.40
2018-03-25T10:06:08.892Z,10.70
2018-03-25T10:08:37.197Z,10.10
2018-03-25T10:11:05.450Z,10.33
2018-03-25T10:13:33.699Z,10.87
2018-03-25T10:16:01.981Z,10.80
2018-03-25T10:18:30.992Z,12.67
2018-03-25T10:21:00.217Z,12.57
2018-03-25T10:23:28.472Z,12.33
2018-03-25T10:25:58.470Z,10.60
2018-03-25T10:28:26.732Z,11.40
2018-03-25T10:30:55.036Z,11.20
2018-03-25T10:33:23.285Z,11.60
2018-03-25T10:35:51.582Z,11.37
2018-03-25T10:38:19.830Z,12.90
2018-03-25T10:40:48.095Z,11.80
2018-03-25T10:43:16.361Z,13.40
2018-03-25T10:45:45.381Z,12.20
2018-03-25T10:48:14.421Z,12.60
2018-03-25T10:50:42.688Z,12.90
2018-03-25T10:53:10.987Z,12.30
2018-03-25T10:55:39.226Z,12.43
2018-03-25T10:58:07.511Z,12.83
2018-03-25T11:00:35.787Z,12.40
2018-03-25T11:03:04.034Z,12.63
2018-03-25T11:05:32.327Z,12.70
2018-03-25T11:08:00.582Z,12.50
2018-03-25T11:10:29.719Z,12.40
2018-03-25T11:12:58.039Z,14.40
2018-03-25T11:15:26.287Z,11.67
2018-03-25T11:17:54.585Z,11.37
2018-03-25T11:20:22.835Z,12.37
2018-03-25T11:22:51.117Z,12.37
2018-03-25T11:25:20.524Z,12.83
2018-03-25T11:27:49.060Z,13.17
2018-03-25T11:30:18.142Z,12.60
2018-03-25T11:32:47.195Z,13.43
2018-03-25T11:35:15.602Z,12.47
2018-03-25T11:37:43.853Z,13.67
2018-03-25T11:40:12.524Z,14.10
2018-03-25T11:42:40.814Z,11.60
2018-03-25T11:45:09.121Z,13.50
2018-03-25T11:47:38.161Z,12.10
2018-03-25T11:50:06.435Z,12.67
2018-03-25T11:52:34.701Z,14.43
2018-03-25T11:55:03.160Z,13.53
2018-03-25T11:57:32.186Z,13.60
2018-03-25T12:00:01.243Z,12.37
2018-03-25T12:02:29.498Z,14.80
2018-03-25T12:04:58.843Z,14.43
2018-03-25T12:07:27.923Z,13.53
2018-03-25T12:09:56.145Z,13.50
2018-03-25T12:12:24.617Z,14.80
2018-03-25T12:14:52.915Z,12.70
2018-03-25T12:17:21.207Z,14.13
2018-03-25T12:19:49.522Z,13.87
2018-03-25T12:22:17.772Z,14.17
2018-03-25T12:24:46.083Z,12.77
2018-03-25T12:27:14.377Z,14.00
2018-03-25T12:29:42.722Z,12.33
2018-03-25T12:32:11.013Z,13.03
2018-03-25T12:34:39.510Z,13.63
2018-03-25T12:37:08.046Z,12.87
2018-03-25T12:39:36.289Z,14.47
2018-03-25T12:42:04.569Z,14.00
2018-03-25T12:44:32.932Z,12.73
2018-03-25T12:47:03.482Z,13.10
2018-03-25T12:49:31.762Z,14.00
2018-03-25T12:52:00.047Z,14.97
2018-03-25T12:54:28.398Z,12.13
2018-03-25T12:56:56.645Z,13.97
2018-03-25T12:59:25.675Z,14.37
2018-03-25T13:01:53.918Z,14.37
2018-03-25T13:04:26.264Z,14.50
2018-03-25T13:06:54.873Z,13.70
2018-03-25T13:09:23.150Z,13.47
2018-03-25T13:11:51.608Z,13.53
2018-03-25T13:14:19.851Z,14.50
2018-03-25T13:16:48.132Z,13.67
2018-03-25T13:19:16.405Z,14.80
2018-03-25T13:21:44.674Z,13.37
2018-03-25T13:24:13.836Z,15.90
2018-03-25T13:26:42.131Z,15.83
2018-03-25T13:29:10.420Z,14.53
2018-03-25T13:31:38.675Z,15.73
2018-03-25T13:34:06.932Z,15.83
2018-03-25T13:36:35.944Z,14.80
2018-03-25T13:39:04.279Z,16.83
2018-03-25T13:41:32.569Z,15.60
2018-03-25T13:44:00.855Z,14.67
2018-03-25T13:46:29.117Z,16.20
2018-03-25T13:48:57.400Z,15.30
2018-03-25T13:51:25.666Z,15.20
2018-03-25T13:53:53.941Z,16.83
2018-03-25T13:56:22.186Z,16.70
2018-03-25T13:58:50.425Z,16.70
2018-03-25T14:01:18.771Z,15.70
2018-03-25T14:03:47.418Z,16.80
2018-03-25T14:06:15.706Z,16.57
2018-03-25T14:08:43.961Z,17.27
2018-03-25T14:11:12.220Z,15.30
2018-03-25T14:13:40.598Z,17.60
2018-03-25T14:16:09.683Z,16.27
2018-03-25T14:18:37.925Z,17.63
2018-03-25T14:21:06.203Z,16.70
2018-03-25T14:23:35.208Z,18.00
2018-03-25T14:26:03.477Z,17.87
2018-03-25T14:28:31.748Z,17.17
2018-03-25T14:30:59.966Z,16.30
2018-03-25T14:33:29.524Z,19.23
2018-03-25T14:35:57.776Z,18.93
2018-03-25T14:38:26.319Z,19.40
2018-03-25T14:40:54.574Z,18.60
2018-03-25T14:43:24.201Z,18.20
2018-03-25T14:45:54.146Z,19.10
2018-03-25T14:48:22.480Z,18.80
2018-03-25T14:50:51.366Z,20.00
2018-03-25T14:53:19.610Z,18.83
2018-03-25T14:55:48.678Z,20.10
2018-03-25T14:58:16.918Z,19.93
2018-03-25T15:00:47.688Z,19.43
2018-03-25T15:03:16.022Z,18.57
2018-03-25T15:05:44.332Z,19.17
2018-03-25T15:08:13.361Z,19.10
2018-03-25T15:10:41.615Z,20.03
2018-03-25T15:13:09.960Z,21.47
2018-03-25T15:15:38.216Z,20.10
2018-03-25T15:18:06.622Z,21.03
2018-03-25T15:20:35.934Z,18.23
2018-03-25T15:23:04.277Z,20.80
2018-03-25T15:25:32.529Z,18.97
2018-03-25T15:28:00.796Z,19.47
2018-03-25T15:30:29.111Z,20.07
2018-03-25T15:32:57.435Z,22.50
2018-03-25T15:35:26.126Z,20.73
2018-03-25T15:37:54.414Z,21.53
2018-03-25T15:40:22.823Z,22.33
2018-03-25T15:42:51.114Z,22.23
2018-03-25T15:45:19.441Z,23.67
2018-03-25T15:47:48.312Z,22.27
2018-03-25T15:50:16.652Z,22.03
2018-03-25T15:52:44.890Z,21.47
2018-03-25T15:55:14.062Z,23.27
2018-03-25T15:57:42.890Z,22.63
2018-03-25T16:00:11.299Z,22.83
2018-03-25T16:02:39.577Z,21.80
2018-03-25T16:05:07.821Z,24.37
2018-03-25T16:07:37.468Z,21.60
2018-03-25T16:10:05.877Z,21.37
2018-03-25T16:12:34.217Z,22.27
2018-03-25T16:15:02.921Z,22.93
2018-03-25T16:17:32.413Z,22.93
2018-03-25T16:20:02.428Z,23.20
2018-03-25T16:22:30.726Z,22.23
2018-03-25T16:25:01.833Z,22.73
2018-03-25T16:27:30.076Z,20.50
2018-03-25T16:29:58.426Z,21.93
2018-03-25T16:32:26.822Z,23.23
2018-03-25T16:34:55.929Z,23.10
2018-03-25T16:37:24.303Z,22.40
2018-03-25T16:39:52.630Z,24.07
2018-03-25T16:42:21.644Z,24.80
2018-03-25T16:44:49.941Z,23.00
2018-03-25T16:47:18.231Z,23.63
2018-03-25T16:49:46.692Z,23.73
2018-03-25T16:52:15.006Z,24.00
2018-03-25T16:54:44.149Z,24.10
2018-03-25T16:57:12.418Z,23.73
2018-03-25T16:59:40.734Z,24.53
2018-03-25T17:02:12.910Z,24.97
2018-03-25T17:04:41.293Z,24.70
2018-03-25T17:07:11.553Z,24.37
2018-03-25T17:09:40.117Z,23.97
2018-03-25T17:12:08.375Z,23.27
2018-03-25T17:14:37.626Z,23.23
2018-03-25T17:17:06.945Z,22.70
2018-03-25T17:19:36.080Z,24.00
2018-03-25T17:22:04.443Z,25.23
2018-03-25T17:24:34.242Z,25.37
2018-03-25T17:27:02.490Z,23.97
2018-03-25T17:29:30.773Z,24.33
2018-03-25T17:31:59.041Z,23.73
2018-03-25T17:34:27.741Z,24.07
2018-03-25T17:36:56.017Z,25.40
2018-03-25T17:39:24.297Z,22.67
2018-03-25T17:41:52.656Z,25.30
2018-03-25T17:44:20.840Z,25.43
2018-03-25T17:46:49.175Z,23.53
2018-03-25T17:49:17.590Z,24.10
2018-03-25T17:51:48.086Z,25.27
2018-03-25T17:54:16.603Z,22.63
2018-03-25T17:56:45.075Z,22.93
2018-03-25T17:59:14.770Z,22.90
2018-03-25T18:01:43.892Z,24.00
2018-03-25T18:04:14.654Z,25.57
2018-03-25T18:06:43.092Z,24.37
2018-03-25T18:09:11.415Z,24.80
2018-03-25T18:11:39.686Z,23.83
2018-03-25T18:14:07.983Z,24.07
2018-03-25T18:16:36.360Z,25.60
2018-03-25T18:19:06.383Z,23.97
2018-03-25T18:21:34.703Z,24.70
2018-03-25T18:24:03.073Z,23.03
2018-03-25T18:26:32.184Z,22.37
2018-03-25T18:29:01.472Z,23.90
2018-03-25T18:31:32.336Z,24.03
2018-03-25T18:34:01.890Z,22.00
2018-03-25T18:36:30.394Z,23.50
2018-03-25T18:38:58.946Z,23.53
2018-03-25T18:41:27.202Z,23.40
2018-03-25T18:43:57.451Z,22.30
2018-03-25T18:46:26.699Z,22.23
2018-03-25T18:48:55.739Z,24.03
2018-03-25T18:51:24.185Z,23.60
2018-03-25T18:53:52.481Z,23.60
2018-03-25T18:56:21.118Z,21.70
2018-03-25T18:58:49.579Z,23.63
2018-03-25T19:01:18.893Z,23.57
2018-03-25T19:03:47.324Z,22.67
2018-03-25T19:06:16.676Z,23.50
2018-03-25T19:08:45.054Z,25.67
2018-03-25T19:11:13.330Z,24.20
2018-03-25T19:13:42.737Z,23.63
2018-03-25T19:16:13.275Z,24.60
2018-03-25T19:18:41.716Z,21.93
2018-03-25T19:21:11.669Z,25.70
2018-03-25T19:23:41.755Z,23.63
2018-03-25T19:26:11.081Z,22.33
2018-03-25T19:28:41.345Z,23.20
2018-03-25T19:31:09.716Z,23.00
2018-03-25T19:33:38.631Z,23.60
2018-03-25T19:36:07.410Z,22.43
2018-03-25T19:38:36.277Z,23.00
2018-03-25T19:41:05.661Z,22.03
2018-03-25T19:43:34.729Z,22.67
2018-03-25T19:46:03.930Z,22.50
2018-03-25T19:48:33.839Z,23.53
2018-03-25T19:51:02.981Z,22.53
2018-03-25T19:53:31.213Z,22.80
2018-03-25T19:55:59.504Z,22.20
2018-03-25T19:58:28.541Z,21.57
2018-03-25T20:00:57.741Z,24.73
2018-03-25T20:03:26.928Z,24.33
2018-03-25T20:05:55.316Z,24.87
2018-03-25T20:08:23.583Z,25.17
2018-03-25T20:10:53.531Z,22.50
2018-03-25T20:13:21.811Z,26.17
2018-03-25T20:15:50.335Z,24.63
2018-03-25T20:18:18.604Z,25.50
2018-03-25T20:20:46.906Z,24.90
2018-03-25T20:23:15.154Z,25.60
2018-03-25T20:25:43.620Z,26.60
2018-03-25T20:28:12.541Z,24.77
2018-03-25T20:30:41.024Z,24.60
2018-03-25T20:33:10.069Z,27.03
2018-03-25T20:35:38.484Z,26.53
2018-03-25T20:38:06.805Z,25.43
2018-03-25T20:40:35.244Z,23.57
2018-03-25T20:43:04.281Z,23.50
2018-03-25T20:45:32.561Z,25.07
2018-03-25T20:48:01.054Z,25.53
2018-03-25T20:50:29.368Z,24.30
2018-03-25T20:52:57.617Z,22.23
2018-03-25T20:55:25.874Z,23.70
2018-03-25T20:57:54.206Z,25.33
2018-03-25T21:00:22.446Z,25.13
2018-03-25T21:02:50.942Z,23.83
2018-03-25T21:05:19.272Z,22.10
2018-03-25T21:07:47.523Z,25.60
2018-03-25T21:10:15.777Z,22.80
2018-03-25T21:12:44.807Z,24.57
2018-03-25T21:15:13.862Z,24.97
2018-03-25T21:17:42.125Z,24.03
2018-03-25T21:20:10.365Z,23.00
2018-03-25T21:22:38.637Z,23.30
2018-03-25T21:25:07.289Z,22.63
2018-03-25T21:27:37.044Z,23.50
2018-03-25T21:30:05.327Z,24.03
2018-03-25T21:32:33.757Z,24.83
2018-03-25T21:35:01.999Z,25.07
2018-03-25T21:37:30.466Z,23.40
2018-03-25T21:40:00.226Z,24.93
2018-03-25T21:42:30.000Z,23.80
2018-03-25T21:44:58.384Z,24.40
2018-03-25T21:47:26.699Z,22.63
2018-03-25T21:49:54.954Z,21.83
2018-03-25T21:52:24.196Z,24.30
2018-03-25T21:54:52.589Z,22.83
2018-03-25T21:57:20.904Z,24.00
2018-03-25T21:59:49.307Z,23.80
2018-03-25T22:02:17.583Z,27.70
2018-03-25T22:04:45.859Z,26.20
2018-03-25T22:07:14.134Z,22.83
2018-03-25T22:09:43.867Z,25.70
2018-03-25T22:12:12.146Z,23.93
2018-03-25T22:14:40.441Z,26.50
2018-03-25T22:17:08.694Z,25.87
2018-03-25T22:19:36.933Z,24.63
2018-03-25T22:22:05.994Z,25.27
2018-03-25T22:24:34.346Z,22.97
2018-03-25T22:27:02.603Z,23.97
2018-03-25T22:29:30.905Z,24.70
2018-03-25T22:31:59.152Z,25.10
2018-03-25T22:34:27.530Z,23.73
2018-03-25T22:36:55.799Z,22.97
2018-03-25T22:39:24.046Z,25.60
2018-03-25T22:41:52.309Z,22.93
2018-03-25T22:44:20.744Z,25.80
2018-03-25T22:46:49.014Z,23.50
2018-03-25T22:49:18.057Z,23.73
2018-03-25T22:51:46.366Z,25.10
2018-03-25T22:54:14.633Z,24.97
2018-03-25T22:56:43.922Z,27.57
2018-03-25T22:59:12.169Z,25.83
2018-03-25T23:01:40.443Z,25.07
2018-03-25T23:04:08.700Z,26.50
2018-03-25T23:06:37.884Z,26.20
2018-03-25T23:09:06.117Z,27.27
2018-03-25T23:11:34.604Z,23.60
2018-03-25T23:14:02.918Z,25.20
2018-03-25T23:16:31.157Z,24.90
2018-03-25T23:18:59.418Z,24.80
2018-03-25T23:21:28.513Z,24.17
2018-03-25T23:23:56.757Z,26.27
2018-03-25T23:26:25.758Z,24.07
2018-03-25T23:28:54.023Z,26.07
2018-03-25T23:31:22.317Z,24.77
2018-03-25T23:33:51.382Z,25.43
2018-03-25T23:36:19.632Z,25.57
2018-03-25T23:38:47.908Z,26.00
2018-03-25T23:41:16.159Z,25.83
2018-03-25T23:43:45.307Z,24.37
2018-03-25T23:46:13.521Z,24.10
2018-03-25T23:48:41.792Z,25.20
2018-03-25T23:51:10.076Z,24.43
2018-03-25T23:53:38.322Z,24.50
2018-03-25T23:56:06.746Z,25.13
2018-03-25T23:58:35.171Z,27.00
